YRBB weather

Rainbow Beach Airport
Queensland, Australia

Public forecast

Using degrees Celsius for public forecast. Weather courtesy of forecast.io.

METAR (pilot weather report)

Closest report is Bundaberg Airport, 69.0 nm (127.8 km) NW. Retrieved 2019/04/19 23:00 UTC (1 hour ago):

YBUD 192300Z AUTO 16009KT 9999 // SCT022 22/21 Q1019

TAF (pilot weather forecast)

Forecast is more than 12 hours old.

Closest forecast is Brisbane International Airport, 93.2 nm (172.5 km) S. Retrieved 2019/04/19 00:00 UTC (1 day ago):

TAF YBBN 192309Z 2000/2106 12014KT 9999 -SHRA SCT025 BKN040 FM201200 16010KT 9999 -SHRA FEW015 BKN025 BKN040 FM202300 13014KT 9999 SCT025 SCT040 INTER 2000/2018 3000 SHRA BKN012